Time;durP1;ratioP1;P1;durP2;ratioP2;P2;SDS_P1;SDS_P2;PMS_P1;PMS_P2;Temp;Humidity;BMP_temperature;BMP_pressure;BME280_temperature;BME280_humidity;BME280_pressure;Samples;Min_cycle;Max_cycle;Signal;HPM_P1;HPM_P2
2024/01/20 00:00:26;;;;;;;29.90;26.98;;;;;;;;;;4874795;29;20051;-93
2024/01/20 00:06:01;;;;;;;27.75;25.02;;;;;;;;;;4941925;23;20105;-92
2024/01/20 00:08:43;;;;;;;27.38;24.67;;;;;;;;;;4864365;29;20045;-96
2024/01/20 00:11:37;;;;;;;26.65;24.35;;;;;;;;;;4861534;29;20041;-96
2024/01/20 00:14:16;;;;;;;25.15;22.90;;;;;;;;;;4884952;29;20036;-92
2024/01/20 00:17:06;;;;;;;26.45;23.42;;;;;;;;;;4895136;29;20049;-95
2024/01/20 00:29:03;;;;;;;26.85;24.55;;;;;;;;;;4847536;29;20053;-96
2024/01/20 00:31:29;;;;;;;27.98;25.35;;;;;;;;;;4831162;29;20046;-93
2024/01/20 00:36:33;;;;;;;27.33;24.75;;;;;;;;;;4945175;23;20084;-91
2024/01/20 00:44:46;;;;;;;30.52;28.15;;;;;;;;;;4885905;29;20044;-96
2024/01/20 00:47:18;;;;;;;26.30;23.98;;;;;;;;;;4881883;29;20085;-95
2024/01/20 00:49:50;;;;;;;27.00;24.92;;;;;;;;;;4900856;23;20096;-92
2024/01/20 01:15:34;;;;;;;27.58;25.10;;;;;;;;;;4894981;29;20085;-95
2024/01/20 01:18:00;;;;;;;24.73;22.63;;;;;;;;;;4869483;29;20079;-91
2024/01/20 01:20:43;;;;;;;25.08;23.08;;;;;;;;;;4871140;29;20029;-91
2024/01/20 01:23:30;;;;;;;23.70;21.65;;;;;;;;;;4866748;29;20467;-91
2024/01/20 01:25:59;;;;;;;24.42;22.20;;;;;;;;;;4854107;29;20049;-91
2024/01/20 01:31:18;;;;;;;27.30;25.13;;;;;;;;;;4920480;23;20048;-92
2024/01/20 01:33:53;;;;;;;29.52;26.90;;;;;;;;;;4867086;29;20032;-96
2024/01/20 01:36:22;;;;;;;26.45;23.88;;;;;;;;;;4869661;29;20021;-91
2024/01/20 01:41:27;;;;;;;23.80;21.80;;;;;;;;;;5291673;23;20097;-90
2024/01/20 01:43:56;;;;;;;24.42;22.35;;;;;;;;;;4866276;29;20051;-92
2024/01/20 01:46:22;;;;;;;24.80;22.52;;;;;;;;;;4866638;29;20133;-92
2024/01/20 01:48:57;;;;;;;23.55;21.17;;;;;;;;;;4889364;23;20019;-92
2024/01/20 01:51:57;;;;;;;24.75;22.50;;;;;;;;;;4865435;29;20041;-96
2024/01/20 01:54:36;;;;;;;25.48;23.40;;;;;;;;;;4901698;23;20060;-96
2024/01/20 01:57:05;;;;;;;26.25;23.85;;;;;;;;;;4876419;29;20052;-92
2024/01/20 01:59:35;;;;;;;24.83;22.85;;;;;;;;;;4883296;29;20084;-92
2024/01/20 02:02:01;;;;;;;25.38;23.17;;;;;;;;;;4883044;29;20032;-92
2024/01/20 02:04:32;;;;;;;25.65;23.02;;;;;;;;;;4882655;29;20029;-92
2024/01/20 02:06:58;;;;;;;25.73;23.63;;;;;;;;;;4881935;29;20051;-92
2024/01/20 02:09:55;;;;;;;24.42;22.33;;;;;;;;;;4883180;29;20106;-96
2024/01/20 02:12:24;;;;;;;25.40;23.08;;;;;;;;;;4889206;29;20127;-92
2024/01/20 02:15:03;;;;;;;25.17;23.02;;;;;;;;;;4886201;29;20108;-92
2024/01/20 02:17:35;;;;;;;24.70;22.50;;;;;;;;;;4886300;29;20446;-92
2024/01/20 02:20:04;;;;;;;27.27;25.02;;;;;;;;;;4886489;29;20031;-92
2024/01/20 02:22:30;;;;;;;25.90;23.50;;;;;;;;;;4885571;29;20060;-91
2024/01/20 02:25:03;;;;;;;24.40;22.25;;;;;;;;;;4887467;29;20056;-92
2024/01/20 02:27:44;;;;;;;26.95;24.15;;;;;;;;;;4887534;29;20106;-96
2024/01/20 02:30:42;;;;;;;;;;;;;;;;;;;;;
2024/01/20 02:36:38;;;;;;;29.90;26.93;;;;;;;;;;4846674;29;20080;-91
2024/01/20 02:39:07;;;;;;;27.57;25.13;;;;;;;;;;4816031;29;20129;-90
2024/01/20 02:41:43;;;;;;;29.35;26.80;;;;;;;;;;4820003;29;20259;-91
2024/01/20 02:47:39;;;;;;;27.70;25.25;;;;;;;;;;4865343;29;20077;-90
2024/01/20 02:50:14;;;;;;;27.77;25.25;;;;;;;;;;4900322;23;20498;-96
2024/01/20 02:52:44;;;;;;;30.38;27.83;;;;;;;;;;4866753;29;20048;-90
2024/01/20 02:55:32;;;;;;;30.38;27.92;;;;;;;;;;4867874;29;20494;-96
2024/01/20 03:06:21;;;;;;;27.73;25.38;;;;;;;;;;4894990;23;20074;-91
2024/01/20 03:08:47;;;;;;;29.15;26.60;;;;;;;;;;4866419;29;20112;-92
2024/01/20 03:11:16;;;;;;;31.83;28.45;;;;;;;;;;4885096;29;20150;-93
2024/01/20 03:22:28;;;;;;;28.90;26.48;;;;;;;;;;4930151;23;20065;-91
2024/01/20 03:24:54;;;;;;;32.55;29.38;;;;;;;;;;4968328;23;20088;-90
2024/01/20 03:27:32;;;;;;;31.30;28.70;;;;;;;;;;4867040;29;20073;-96
2024/01/20 03:30:16;;;;;;;27.55;25.10;;;;;;;;;;4878147;29;20116;-91
2024/01/20 03:32:42;;;;;;;;;;;;;;;;;;4881884;29;20193;-95
2024/01/20 03:35:14;;;;;;;29.40;26.60;;;;;;;;;;4902871;23;20004;-93
2024/01/20 03:38:01;;;;;;;26.48;23.80;;;;;;;;;;4897808;29;20052;-94
2024/01/20 03:40:55;;;;;;;26.55;23.88;;;;;;;;;;4876366;29;20037;-94
2024/01/20 03:43:28;;;;;;;28.98;26.25;;;;;;;;;;4878045;29;20471;-96
2024/01/20 03:46:16;;;;;;;32.15;28.98;;;;;;;;;;4896737;29;20040;-96
2024/01/20 03:48:47;;;;;;;34.53;31.58;;;;;;;;;;4875033;29;20033;-92
2024/01/20 03:54:44;;;;;;;31.13;28.40;;;;;;;;;;4886390;29;20036;-96
2024/01/20 04:00:17;;;;;;;34.13;31.13;;;;;;;;;;4881955;29;20032;-93
2024/01/20 04:02:46;;;;;;;42.95;39.45;;;;;;;;;;4866856;29;20033;-93
2024/01/20 04:05:18;;;;;;;45.60;41.67;;;;;;;;;;4869463;29;20029;-96
2024/01/20 04:07:47;;;;;;;49.60;45.63;;;;;;;;;;4870057;29;20036;-92
2024/01/20 04:10:17;;;;;;;51.22;46.97;;;;;;;;;;4865952;29;20025;-91
2024/01/20 04:12:46;;;;;;;50.75;46.47;;;;;;;;;;4868102;29;20112;-92
2024/01/20 04:15:18;;;;;;;49.10;45.10;;;;;;;;;;4866455;29;20032;-92
2024/01/20 04:18:03;;;;;;;48.13;44.17;;;;;;;;;;4868381;29;20104;-96
2024/01/20 04:26:48;;;;;;;48.78;44.85;;;;;;;;;;4896445;23;20057;-96
2024/01/20 04:32:12;;;;;;;32.35;29.08;;;;;;;;;;4883979;29;19914;-92
2024/01/20 04:34:39;;;;;;;39.08;35.55;;;;;;;;;;4871248;29;20032;-92
2024/01/20 04:37:11;;;;;;;49.15;44.78;;;;;;;;;;4886702;29;20040;-95
2024/01/20 04:39:50;;;;;;;52.67;48.50;;;;;;;;;;4883649;29;20390;-91
2024/01/20 04:42:19;;;;;;;50.45;46.30;;;;;;;;;;4887033;29;20127;-93
2024/01/20 04:44:48;;;;;;;48.08;44.03;;;;;;;;;;4883208;29;20033;-93
2024/01/20 04:50:17;;;;;;;46.10;42.17;;;;;;;;;;4903001;29;20035;-92
2024/01/20 04:53:09;;;;;;;47.42;43.53;;;;;;;;;;4882599;29;20035;-96
2024/01/20 04:55:35;;;;;;;49.38;45.70;;;;;;;;;;4879585;29;20036;-90
2024/01/20 04:58:01;;;;;;;43.63;40.20;;;;;;;;;;4877804;29;20051;-92
2024/01/20 05:03:33;;;;;;;49.42;45.35;;;;;;;;;;5470722;23;20055;-93
2024/01/20 05:05:59;;;;;;;45.40;41.88;;;;;;;;;;4877095;29;20470;-92
2024/01/20 05:08:28;;;;;;;49.50;45.45;;;;;;;;;;4864023;29;20044;-91
2024/01/20 05:11:07;;;;;;;53.55;49.30;;;;;;;;;;4867980;29;20044;-96
2024/01/20 05:19:25;;;;;;;41.90;38.30;;;;;;;;;;4912297;23;20036;-92
2024/01/20 05:21:54;;;;;;;38.33;35.20;;;;;;;;;;4869864;29;20035;-91
2024/01/20 05:39:36;;;;;;;41.30;37.75;;;;;;;;;;4844233;29;20113;-95
2024/01/20 05:48:16;;;;;;;36.03;32.97;;;;;;;;;;4828335;29;20063;-91
2024/01/20 05:50:54;;;;;;;37.85;34.60;;;;;;;;;;4865469;29;20060;-96
2024/01/20 05:53:20;;;;;;;39.13;35.60;;;;;;;;;;4851252;29;20030;-92
2024/01/20 05:56:11;;;;;;;41.30;37.58;;;;;;;;;;4852353;29;20033;-94
2024/01/20 06:05:12;;;;;;;39.20;35.33;;;;;;;;;;4886563;29;20041;-96
2024/01/20 06:07:41;;;;;;;35.22;31.85;;;;;;;;;;4871251;29;20092;-92
2024/01/20 06:29:09;;;;;;;50.58;45.58;;;;;;;;;;4782714;30;20048;-96
2024/01/20 06:31:47;;;;;;;53.47;45.45;;;;;;;;;;4794461;29;20031;-96
2024/01/20 06:43:47;;;;;;;53.85;46.45;;;;;;;;;;5040445;23;20047;-92
2024/01/20 06:52:16;;;;;;;57.38;52.15;;;;;;;;;;4991931;23;20063;-94
2024/01/20 06:58:03;;;;;;;43.95;40.35;;;;;;;;;;4828026;29;20123;-91
2024/01/20 07:00:50;;;;;;;50.20;45.53;;;;;;;;;;4832206;29;20033;-92
2024/01/20 07:20:50;;;;;;;42.00;38.50;;;;;;;;;;4851103;29;20113;-96
2024/01/20 07:32:58;;;;;;;29.17;26.47;;;;;;;;;;4994961;23;20115;-90
2024/01/20 07:44:33;;;;;;;17.70;15.90;;;;;;;;;;4911102;29;20055;-95
2024/01/20 07:46:59;;;;;;;19.20;17.20;;;;;;;;;;4857614;29;20042;-91
2024/01/20 07:49:32;;;;;;;20.35;17.45;;;;;;;;;;5074583;23;20051;-94
2024/01/20 07:55:14;;;;;;;18.17;16.27;;;;;;;;;;5405564;23;20124;-92
2024/01/20 08:12:55;;;;;;;15.85;14.23;;;;;;;;;;4897442;29;20081;-90
2024/01/20 08:18:25;;;;;;;14.18;12.02;;;;;;;;;;5066582;23;20063;-92
2024/01/20 08:21:05;;;;;;;13.00;11.27;;;;;;;;;;4876978;29;20021;-92
2024/01/20 08:23:31;;;;;;;15.65;11.68;;;;;;;;;;4876693;29;20044;-93
2024/01/20 08:26:25;;;;;;;;;;;;;;;;;;;;;
2024/01/20 08:29:02;;;;;;;11.18;10.00;;;;;;;;;;4993983;23;20063;-91
2024/01/20 08:31:31;;;;;;;10.45;9.35;;;;;;;;;;5182961;23;20060;-96
2024/01/20 08:34:12;;;;;;;10.75;9.65;;;;;;;;;;4876214;29;20069;-96
2024/01/20 08:36:55;;;;;;;11.70;10.48;;;;;;;;;;4866340;29;20049;-93
2024/01/20 08:39:44;;;;;;;11.73;9.85;;;;;;;;;;4872048;29;20060;-92
2024/01/20 08:44:55;;;;;;;10.68;8.50;;;;;;;;;;4934523;23;20060;-93
2024/01/20 08:47:21;;;;;;;10.38;9.27;;;;;;;;;;4889740;29;20028;-92
2024/01/20 08:49:51;;;;;;;10.13;8.45;;;;;;;;;;4926695;29;20024;-93
2024/01/20 08:52:18;;;;;;;11.85;8.88;;;;;;;;;;4907427;29;20370;-91
2024/01/20 08:54:44;;;;;;;10.50;8.70;;;;;;;;;;4884182;29;20347;-91
2024/01/20 08:57:10;;;;;;;11.80;8.85;;;;;;;;;;4924928;23;20033;-91
2024/01/20 08:59:42;;;;;;;8.85;7.95;;;;;;;;;;4870463;29;20117;-96
2024/01/20 09:02:09;;;;;;;9.65;8.27;;;;;;;;;;4874618;29;20040;-90
2024/01/20 09:04:35;;;;;;;8.73;7.82;;;;;;;;;;4871753;29;20119;-90
2024/01/20 09:07:01;;;;;;;9.50;7.82;;;;;;;;;;4870514;29;20037;-91
2024/01/20 09:09:50;;;;;;;8.98;8.07;;;;;;;;;;4870260;29;20032;-93
2024/01/20 09:12:21;;;;;;;9.77;8.02;;;;;;;;;;4866292;29;20037;-90
2024/01/20 09:14:50;;;;;;;9.55;7.70;;;;;;;;;;4868585;29;20049;-91
2024/01/20 09:17:27;;;;;;;;;;;;;;;;;;;;;
2024/01/20 09:19:54;;;;;;;14.07;8.80;;;;;;;;;;4884675;29;20037;-91
2024/01/20 09:22:20;;;;;;;15.48;13.05;;;;;;;;;;4884616;29;20133;-93
2024/01/20 09:24:46;;;;;;;12.20;10.38;;;;;;;;;;4873107;29;20040;-92
2024/01/20 09:27:23;;;;;;;10.27;9.18;;;;;;;;;;4870379;29;20033;-96
2024/01/20 09:29:49;;;;;;;9.32;7.75;;;;;;;;;;4882512;29;20029;-90
2024/01/20 09:32:21;;;;;;;12.35;9.52;;;;;;;;;;4866894;29;20061;-92
2024/01/20 09:34:47;;;;;;;9.50;8.20;;;;;;;;;;4888254;29;20020;-91
2024/01/20 09:37:23;;;;;;;10.48;8.52;;;;;;;;;;4887944;29;20055;-96
2024/01/20 09:39:49;;;;;;;10.73;6.90;;;;;;;;;;4887026;29;20036;-91
2024/01/20 09:42:18;;;;;;;10.27;7.22;;;;;;;;;;4883716;29;20033;-95
2024/01/20 09:44:45;;;;;;;8.60;7.10;;;;;;;;;;4971493;23;20060;-90
2024/01/20 09:47:12;;;;;;;8.85;6.93;;;;;;;;;;4902241;23;20084;-88
2024/01/20 09:49:44;;;;;;;9.35;6.88;;;;;;;;;;4944870;23;20041;-95
2024/01/20 09:52:18;;;;;;;9.40;8.40;;;;;;;;;;4866536;29;20150;-88
2024/01/20 09:54:51;;;;;;;12.75;11.27;;;;;;;;;;4886906;29;20033;-90
2024/01/20 09:57:17;;;;;;;13.07;11.43;;;;;;;;;;4866788;29;20545;-92
2024/01/20 10:00:02;;;;;;;14.85;12.02;;;;;;;;;;4885662;29;20032;-92
2024/01/20 10:02:33;;;;;;;13.07;10.40;;;;;;;;;;4866889;29;20471;-91
2024/01/20 10:05:05;;;;;;;10.77;9.27;;;;;;;;;;4871366;29;20088;-94
2024/01/20 10:07:31;;;;;;;16.58;11.68;;;;;;;;;;4888236;29;20123;-92
2024/01/20 10:09:57;;;;;;;12.65;10.18;;;;;;;;;;4888934;29;20024;-93
2024/01/20 10:12:24;;;;;;;10.82;8.63;;;;;;;;;;4897864;29;20021;-94
2024/01/20 10:17:38;;;;;;;10.85;9.43;;;;;;;;;;4902674;29;20055;-91
2024/01/20 10:20:05;;;;;;;12.95;9.68;;;;;;;;;;4866745;29;20029;-92
2024/01/20 10:22:33;;;;;;;10.55;9.38;;;;;;;;;;4865084;29;20088;-91
2024/01/20 10:24:59;;;;;;;10.93;8.43;;;;;;;;;;4866936;29;20036;-93
2024/01/20 10:27:25;;;;;;;11.93;8.63;;;;;;;;;;4883880;29;20028;-90
2024/01/20 10:30:04;;;;;;;11.05;8.82;;;;;;;;;;4889079;29;20036;-90
2024/01/20 10:32:30;;;;;;;9.60;8.52;;;;;;;;;;4875857;29;20051;-90
2024/01/20 10:34:56;;;;;;;11.30;9.30;;;;;;;;;;4884801;29;20035;-88
2024/01/20 10:37:28;;;;;;;10.23;8.88;;;;;;;;;;4887346;29;20032;-90
2024/01/20 10:39:55;;;;;;;13.23;11.35;;;;;;;;;;4889506;29;20053;-90
2024/01/20 10:42:22;;;;;;;10.30;8.07;;;;;;;;;;4887207;29;20067;-90
2024/01/20 10:44:57;;;;;;;10.32;8.10;;;;;;;;;;4873239;29;20036;-90
2024/01/20 10:47:39;;;;;;;10.38;9.27;;;;;;;;;;4889450;29;20032;-91
2024/01/20 10:50:06;;;;;;;13.60;10.65;;;;;;;;;;4890181;29;20055;-93
2024/01/20 10:52:36;;;;;;;13.82;10.23;;;;;;;;;;4880995;29;20048;-90
2024/01/20 10:55:03;;;;;;;10.93;9.27;;;;;;;;;;4887542;29;20085;-89
2024/01/20 10:57:33;;;;;;;10.48;9.38;;;;;;;;;;4871048;29;20044;-90
2024/01/20 11:00:00;;;;;;;13.38;10.48;;;;;;;;;;4978135;23;20057;-90
2024/01/20 11:02:26;;;;;;;13.27;10.75;;;;;;;;;;4871610;29;20025;-89
2024/01/20 11:04:56;;;;;;;11.07;9.77;;;;;;;;;;4859843;29;20064;-91
2024/01/20 11:07:26;;;;;;;11.50;9.98;;;;;;;;;;4873218;29;20049;-91
2024/01/20 11:21:14;;;;;;;13.73;11.23;;;;;;;;;;4881779;29;20140;-90
2024/01/20 11:23:40;;;;;;;15.20;11.35;;;;;;;;;;4867118;29;20041;-92
2024/01/20 11:29:27;;;;;;;16.15;14.38;;;;;;;;;;4887403;29;20072;-96
2024/01/20 11:37:43;;;;;;;14.43;11.65;;;;;;;;;;4881989;29;20089;-91
2024/01/20 11:40:40;;;;;;;12.45;11.10;;;;;;;;;;4869878;29;20025;-92
2024/01/20 11:43:15;;;;;;;15.25;12.23;;;;;;;;;;4852348;29;20149;-94
2024/01/20 11:45:41;;;;;;;14.25;12.75;;;;;;;;;;4848799;29;20026;-88
2024/01/20 11:48:08;;;;;;;15.48;13.38;;;;;;;;;;4849112;29;20040;-90
2024/01/20 11:50:58;;;;;;;15.77;12.95;;;;;;;;;;4852530;29;20061;-92
2024/01/20 11:53:25;;;;;;;15.52;13.25;;;;;;;;;;4865995;29;20514;-91
2024/01/20 11:56:04;;;;;;;17.00;12.57;;;;;;;;;;4874338;29;20052;-93
2024/01/20 11:58:30;;;;;;;14.63;11.98;;;;;;;;;;4868873;29;20042;-91
2024/01/20 12:00:58;;;;;;;14.18;11.10;;;;;;;;;;4851833;29;20030;-91
2024/01/20 12:03:27;;;;;;;13.10;11.23;;;;;;;;;;4866753;29;20041;-96
2024/01/20 12:06:10;;;;;;;15.48;12.65;;;;;;;;;;4875896;29;20144;-93
2024/01/20 12:08:44;;;;;;;14.35;10.38;;;;;;;;;;4868713;29;20033;-94
2024/01/20 12:11:30;;;;;;;15.38;11.13;;;;;;;;;;4863410;29;20045;-95
2024/01/20 12:13:56;;;;;;;13.35;9.45;;;;;;;;;;4861595;29;20029;-88
2024/01/20 12:16:25;;;;;;;17.30;10.63;;;;;;;;;;4846227;29;20081;-96
2024/01/20 12:18:51;;;;;;;11.93;9.18;;;;;;;;;;4862139;29;20033;-90
2024/01/20 12:21:17;;;;;;;13.10;7.80;;;;;;;;;;4846667;29;20042;-93
2024/01/20 12:23:47;;;;;;;11.60;8.43;;;;;;;;;;4854100;29;20034;-91
2024/01/20 12:26:48;;;;;;;12.85;8.35;;;;;;;;;;4986482;23;20073;-91
2024/01/20 12:29:32;;;;;;;12.02;7.40;;;;;;;;;;4976858;23;20067;-89
2024/01/20 12:31:58;;;;;;;14.60;8.57;;;;;;;;;;4891524;29;20032;-91
2024/01/20 12:34:27;;;;;;;10.05;6.97;;;;;;;;;;4914867;23;20497;-91
2024/01/20 12:36:56;;;;;;;11.45;7.32;;;;;;;;;;4865188;29;20080;-89
2024/01/20 12:42:45;;;;;;;10.95;7.05;;;;;;;;;;4897766;29;20053;-90
2024/01/20 12:45:17;;;;;;;12.23;6.77;;;;;;;;;;4880923;29;20056;-95
2024/01/20 12:47:43;;;;;;;12.43;6.88;;;;;;;;;;4883563;29;20040;-92
2024/01/20 12:50:13;;;;;;;12.95;7.03;;;;;;;;;;4883771;29;20637;-94
2024/01/20 12:52:42;;;;;;;11.73;7.25;;;;;;;;;;4883900;29;20025;-95
2024/01/20 12:55:14;;;;;;;13.05;6.88;;;;;;;;;;4882689;29;20115;-92
2024/01/20 12:57:40;;;;;;;16.10;7.68;;;;;;;;;;4883642;29;20040;-89
2024/01/20 13:00:10;;;;;;;15.07;7.45;;;;;;;;;;4869873;29;20033;-96
2024/01/20 13:02:39;;;;;;;13.05;7.50;;;;;;;;;;4865625;29;20033;-96
2024/01/20 13:05:08;;;;;;;13.27;7.63;;;;;;;;;;4878800;29;20482;-94
2024/01/20 13:07:34;;;;;;;12.20;7.22;;;;;;;;;;4882698;29;20044;-95
2024/01/20 13:10:01;;;;;;;11.77;7.07;;;;;;;;;;4899609;29;20485;-93
2024/01/20 13:12:38;;;;;;;13.70;8.20;;;;;;;;;;4900465;29;20061;-95
2024/01/20 13:15:26;;;;;;;14.43;7.43;;;;;;;;;;4883595;29;20028;-94
2024/01/20 13:17:53;;;;;;;10.27;6.68;;;;;;;;;;4900090;29;20032;-89
2024/01/20 13:20:28;;;;;;;13.25;8.18;;;;;;;;;;4899629;29;20043;-95
2024/01/20 13:22:57;;;;;;;13.00;7.35;;;;;;;;;;4875574;29;20052;-96
2024/01/20 13:25:29;;;;;;;10.65;7.28;;;;;;;;;;4882895;29;20040;-94
2024/01/20 13:27:56;;;;;;;12.38;7.63;;;;;;;;;;4873988;29;20032;-87
2024/01/20 13:30:31;;;;;;;14.02;8.55;;;;;;;;;;4885694;29;20107;-88
2024/01/20 13:33:00;;;;;;;17.75;9.13;;;;;;;;;;4876687;29;20417;-95
2024/01/20 13:35:35;;;;;;;15.18;8.48;;;;;;;;;;4866233;29;20057;-95
2024/01/20 13:38:04;;;;;;;16.10;7.93;;;;;;;;;;4868074;29;20037;-96
2024/01/20 13:40:30;;;;;;;14.88;8.63;;;;;;;;;;4902070;23;20041;-92
2024/01/20 13:42:59;;;;;;;13.07;8.85;;;;;;;;;;5065654;23;20957;-92
2024/01/20 13:45:55;;;;;;;12.18;8.85;;;;;;;;;;4877920;29;20140;-95
2024/01/20 13:48:21;;;;;;;11.55;8.13;;;;;;;;;;4873279;29;20036;-89
2024/01/20 13:50:47;;;;;;;15.70;9.90;;;;;;;;;;4870123;29;20471;-89
2024/01/20 13:53:30;;;;;;;;;;;;;;;;;;;;;
2024/01/20 13:55:56;;;;;;;13.65;8.35;;;;;;;;;;4863266;29;20044;-92
2024/01/20 13:58:22;;;;;;;13.52;8.73;;;;;;;;;;4862237;29;20045;-91
2024/01/20 14:00:48;;;;;;;14.68;8.57;;;;;;;;;;4862137;29;20093;-91
2024/01/20 14:03:15;;;;;;;18.05;9.35;;;;;;;;;;4862214;29;20037;-95
2024/01/20 14:05:43;;;;;;;13.13;8.75;;;;;;;;;;4861540;29;20030;-92
2024/01/20 14:08:09;;;;;;;12.00;7.97;;;;;;;;;;4864165;29;20101;-89
2024/01/20 14:10:36;;;;;;;11.07;8.00;;;;;;;;;;4865291;29;20113;-91
2024/01/20 14:13:04;;;;;;;13.63;8.73;;;;;;;;;;4878001;29;20156;-91
2024/01/20 14:15:30;;;;;;;15.27;7.88;;;;;;;;;;4874402;29;20383;-89
2024/01/20 14:17:56;;;;;;;12.48;7.97;;;;;;;;;;4874801;29;20040;-92
2024/01/20 14:20:22;;;;;;;14.00;7.75;;;;;;;;;;4879939;29;20517;-90
2024/01/20 14:22:48;;;;;;;13.38;8.00;;;;;;;;;;4880297;29;20033;-90
2024/01/20 14:28:25;;;;;;;12.10;7.65;;;;;;;;;;4869308;29;20036;-91
2024/01/20 14:30:51;;;;;;;11.50;7.13;;;;;;;;;;4867705;29;20033;-91
2024/01/20 14:33:17;;;;;;;12.27;7.85;;;;;;;;;;4872145;29;20471;-91
2024/01/20 14:35:44;;;;;;;12.60;7.53;;;;;;;;;;4867277;29;20501;-91
2024/01/20 14:38:11;;;;;;;12.20;7.32;;;;;;;;;;4867088;29;20115;-90
2024/01/20 14:40:37;;;;;;;9.75;6.90;;;;;;;;;;4868422;29;20539;-91
2024/01/20 14:43:03;;;;;;;12.23;7.30;;;;;;;;;;4869571;29;20049;-92
2024/01/20 14:45:35;;;;;;;10.93;6.57;;;;;;;;;;4869070;29;20032;-96
2024/01/20 14:48:01;;;;;;;14.30;7.93;;;;;;;;;;4868224;29;20072;-92
2024/01/20 14:50:28;;;;;;;11.25;7.45;;;;;;;;;;4870953;29;20017;-91
2024/01/20 14:53:26;;;;;;;14.25;8.25;;;;;;;;;;4870277;29;20443;-96
2024/01/20 14:59:46;;;;;;;15.43;8.75;;;;;;;;;;4821480;29;20067;-93
2024/01/20 15:02:15;;;;;;;13.27;8.25;;;;;;;;;;4834604;29;20046;-93
2024/01/20 15:04:41;;;;;;;14.23;8.80;;;;;;;;;;4846632;29;20034;-91
2024/01/20 15:07:08;;;;;;;15.27;9.38;;;;;;;;;;4832745;29;20550;-90
2024/01/20 15:22:29;;;;;;;20.20;12.27;;;;;;;;;;4905872;29;20104;-90
2024/01/20 15:24:55;;;;;;;20.48;12.13;;;;;;;;;;4889422;29;20045;-90
2024/01/20 15:32:36;;;;;;;49.00;21.35;;;;;;;;;;4886271;29;20093;-91
2024/01/20 15:35:05;;;;;;;51.90;21.10;;;;;;;;;;4874067;29;20033;-90
2024/01/20 15:38:00;;;;;;;35.97;16.98;;;;;;;;;;4887806;29;20041;-92
2024/01/20 15:45:45;;;;;;;26.52;11.73;;;;;;;;;;5347443;23;20627;-89
2024/01/20 15:48:11;;;;;;;28.10;13.35;;;;;;;;;;4883248;29;20020;-89
2024/01/20 15:50:37;;;;;;;91.60;31.75;;;;;;;;;;4865881;29;20154;-89
2024/01/20 15:53:09;;;;;;;77.25;25.52;;;;;;;;;;4870950;29;20045;-96
2024/01/20 15:55:35;;;;;;;54.50;22.38;;;;;;;;;;4907512;23;20052;-91
2024/01/20 15:58:07;;;;;;;49.83;19.25;;;;;;;;;;4935291;23;20152;-90
2024/01/20 16:28:50;;;;;;;36.72;17.83;;;;;;;;;;4729214;23;20028;31
2024/01/20 16:49:00;;;;;;;40.58;22.30;;;;;;;;;;5201385;23;20062;-95
2024/01/20 16:51:26;;;;;;;36.67;21.75;;;;;;;;;;4884618;29;20040;-92
2024/01/20 16:54:05;;;;;;;38.15;22.35;;;;;;;;;;4866941;29;20033;-96
2024/01/20 17:03:24;;;;;;;41.78;26.35;;;;;;;;;;4808716;29;20121;-94
2024/01/20 17:06:19;;;;;;;;;;;;;;;;;;;;;
2024/01/20 17:09:10;;;;;;;34.90;23.92;;;;;;;;;;4768802;30;20099;-92
2024/01/20 17:11:47;;;;;;;30.95;22.20;;;;;;;;;;5118428;23;20049;-89
2024/01/20 17:14:24;;;;;;;32.78;22.60;;;;;;;;;;4905261;29;20036;-93
2024/01/20 17:20:20;;;;;;;32.10;24.40;;;;;;;;;;4865621;29;20495;-93
2024/01/20 17:25:56;;;;;;;31.52;23.48;;;;;;;;;;4768720;30;20039;-95
2024/01/20 17:31:44;;;;;;;24.67;21.55;;;;;;;;;;4780921;30;20046;-96
2024/01/20 17:37:37;;;;;;;26.63;20.40;;;;;;;;;;4776161;30;20055;-96
2024/01/20 17:43:13;;;;;;;26.23;22.52;;;;;;;;;;4773055;30;20046;-96
2024/01/20 17:45:39;;;;;;;33.47;24.80;;;;;;;;;;4772160;30;20044;-96
2024/01/20 17:48:33;;;;;;;43.40;29.23;;;;;;;;;;4772926;29;20095;-95
2024/01/20 17:51:00;;;;;;;41.65;27.75;;;;;;;;;;4774774;30;20101;-95
2024/01/20 17:53:33;;;;;;;45.20;31.77;;;;;;;;;;4776863;29;20101;-90
2024/01/20 17:56:14;;;;;;;51.03;33.33;;;;;;;;;;4786076;29;20043;-96
2024/01/20 17:58:53;;;;;;;48.45;28.88;;;;;;;;;;4796637;29;20129;-96
2024/01/20 18:01:53;;;;;;;35.67;24.15;;;;;;;;;;4798837;29;20137;-96
2024/01/20 18:09:43;;;;;;;26.60;19.63;;;;;;;;;;4925224;23;20066;-94
2024/01/20 18:24:00;;;;;;;40.75;26.02;;;;;;;;;;4887139;29;20149;-96
2024/01/20 18:36:08;;;;;;;26.10;19.20;;;;;;;;;;5156433;23;20144;-93
2024/01/20 18:38:55;;;;;;;25.30;17.98;;;;;;;;;;4871416;29;20669;-96
2024/01/20 18:41:24;;;;;;;26.25;19.52;;;;;;;;;;4880306;29;20036;-89
2024/01/20 18:58:07;;;;;;;24.15;17.30;;;;;;;;;;4890757;29;20053;-91
2024/01/20 19:00:49;;;;;;;28.75;18.35;;;;;;;;;;4867226;29;20063;-94
2024/01/20 19:03:40;;;;;;;;;;;;;;;;;;;;;
2024/01/20 19:06:28;;;;;;;37.30;23.20;;;;;;;;;;4903734;29;20024;-95
2024/01/20 19:08:57;;;;;;;34.20;23.98;;;;;;;;;;4874399;29;20037;-93
2024/01/20 19:17:34;;;;;;;37.20;21.70;;;;;;;;;;4829104;29;20169;-94
2024/01/20 19:20:04;;;;;;;31.55;21.30;;;;;;;;;;4827178;29;20078;-94
2024/01/20 19:22:33;;;;;;;21.63;17.35;;;;;;;;;;4829115;29;20026;-90
2024/01/20 19:25:02;;;;;;;23.10;17.35;;;;;;;;;;4846440;29;20036;-91
2024/01/20 19:30:35;;;;;;;33.17;22.13;;;;;;;;;;4903575;29;20201;-95
2024/01/20 19:33:10;;;;;;;39.35;23.20;;;;;;;;;;4880948;29;20029;-91
2024/01/20 19:35:51;;;;;;;41.85;22.17;;;;;;;;;;4870677;29;20467;-96
2024/01/20 19:38:23;;;;;;;38.15;23.20;;;;;;;;;;4863060;29;20051;-96
2024/01/20 19:44:28;;;;;;;21.65;16.02;;;;;;;;;;4836536;29;20066;-96
2024/01/20 19:50:16;;;;;;;33.60;20.95;;;;;;;;;;4789709;30;20051;-95
2024/01/20 19:53:19;;;;;;;24.27;17.23;;;;;;;;;;4792486;29;20057;-95
2024/01/20 19:59:02;;;;;;;19.60;15.38;;;;;;;;;;4734859;29;20066;-95
2024/01/20 20:01:29;;;;;;;26.02;18.02;;;;;;;;;;4821296;29;20068;-90
2024/01/20 20:07:09;;;;;;;22.15;14.75;;;;;;;;;;4825363;29;20046;-90
2024/01/20 20:09:49;;;;;;;24.25;16.92;;;;;;;;;;4815291;29;20048;-96
2024/01/20 20:12:57;;;;;;;18.90;16.02;;;;;;;;;;4850105;29;20040;-96
2024/01/20 20:15:58;;;;;;;;;;;;;;;;;;;;;
2024/01/20 20:21:27;;;;;;;18.63;15.25;;;;;;;;;;5181205;23;20088;-89
2024/01/20 20:34:47;;;;;;;21.60;17.83;;;;;;;;;;5325716;23;20057;-91
2024/01/20 20:42:53;;;;;;;24.45;18.40;;;;;;;;;;5206748;23;20059;-96
2024/01/20 20:48:34;;;;;;;21.92;18.25;;;;;;;;;;4843249;29;20041;-90
2024/01/20 20:51:03;;;;;;;24.17;19.55;;;;;;;;;;4840288;29;20034;-96
2024/01/20 20:53:30;;;;;;;24.48;19.67;;;;;;;;;;4854186;29;20048;-90
2024/01/20 20:56:08;;;;;;;26.10;21.38;;;;;;;;;;4866325;29;20033;-95
2024/01/20 20:58:34;;;;;;;25.15;21.15;;;;;;;;;;4863584;29;20554;-88
2024/01/20 21:01:07;;;;;;;22.40;20.02;;;;;;;;;;4850238;29;20403;-93
2024/01/20 21:03:49;;;;;;;27.73;21.15;;;;;;;;;;4891505;29;20032;-88
2024/01/20 21:06:18;;;;;;;25.25;21.48;;;;;;;;;;4884887;29;20044;-91
2024/01/20 21:11:22;;;;;;;25.08;19.80;;;;;;;;;;4904567;23;20523;-94
2024/01/20 21:16:30;;;;;;;24.55;20.77;;;;;;;;;;4890031;24;20053;-94
2024/01/20 21:19:06;;;;;;;23.80;19.25;;;;;;;;;;4864126;29;20112;-94
2024/01/20 21:24:30;;;;;;;;;;;;;;;;;;;;;
2024/01/20 21:27:19;;;;;;;20.85;18.73;;;;;;;;;;4823926;29;20042;-96
2024/01/20 21:30:03;;;;;;;22.92;19.83;;;;;;;;;;4823376;29;20520;-95
2024/01/20 21:35:38;;;;;;;22.45;19.80;;;;;;;;;;4825131;29;20041;-95
2024/01/20 21:42:31;;;;;;;18.23;16.25;;;;;;;;;;4788941;30;20520;-96
2024/01/20 21:44:39;;;;;;;17.92;16.02;;;;;;;;;;4780620;30;20063;-96
2024/01/20 21:47:21;;;;;;;;;;;;;;;;;;;;;
2024/01/20 21:52:51;;;;;;;19.55;15.45;;;;;;;;;;4734327;30;20047;-95
2024/01/20 21:58:00;;;;;;;19.33;16.88;;;;;;;;;;4909232;24;20138;-94
2024/01/20 22:03:55;;;;;;;17.90;15.75;;;;;;;;;;4824461;29;20402;-95
2024/01/20 22:06:56;;;;;;;18.15;15.38;;;;;;;;;;4811661;29;20094;-95
2024/01/20 22:12:23;;;;;;;19.85;17.08;;;;;;;;;;4961259;23;20060;-96
2024/01/20 22:55:59;;;;;;;48.08;30.10;;;;;;;;;;4809388;29;20045;-95
2024/01/20 22:58:47;;;;;;;33.13;23.58;;;;;;;;;;4865638;29;20044;-89
2024/01/20 23:01:32;;;;;;;23.67;19.58;;;;;;;;;;4867750;29;20040;-94
2024/01/20 23:03:58;;;;;;;17.45;15.05;;;;;;;;;;4887578;23;20019;-88
2024/01/20 23:06:27;;;;;;;21.60;16.42;;;;;;;;;;4884721;29;20048;-94
2024/01/20 23:09:20;;;;;;;31.88;19.05;;;;;;;;;;4868258;29;20037;-96
2024/01/20 23:12:15;;;;;;;18.08;13.63;;;;;;;;;;4882965;29;20495;-95
2024/01/20 23:15:13;;;;;;;24.40;17.13;;;;;;;;;;4868325;29;20036;-96
2024/01/20 23:17:58;;;;;;;;;;;;;;;;;;;;;
2024/01/20 23:20:40;;;;;;;32.80;20.58;;;;;;;;;;4894728;29;20105;-96
2024/01/20 23:23:19;;;;;;;36.88;25.40;;;;;;;;;;4878265;29;20108;-95
2024/01/20 23:25:45;;;;;;;41.85;26.75;;;;;;;;;;4866848;29;20071;-89
2024/01/20 23:28:30;;;;;;;29.23;21.67;;;;;;;;;;4867032;29;20043;-94
2024/01/20 23:31:20;;;;;;;37.88;25.50;;;;;;;;;;4866929;29;20036;-94
2024/01/20 23:33:59;;;;;;;;;;;;;;;;;;;;;